sensor_id;sensor_type;location;lat;lon;timestamp;pressure;altitude;pressure_sealevel;temperature;humidity
73338;BME280;61575;49.908;35.556;2023-02-11T00:00:04;100444.53;;;-6.61;68.55
73338;BME280;61575;49.908;35.556;2023-02-11T00:03:06;100432.53;;;-6.68;68.36
73338;BME280;61575;49.908;35.556;2023-02-11T00:06:09;100437.97;;;-6.76;68.33
73338;BME280;61575;49.908;35.556;2023-02-11T00:09:12;100430.28;;;-6.82;68.42
73338;BME280;61575;49.908;35.556;2023-02-11T00:12:13;100436.66;;;-6.93;68.69
73338;BME280;61575;49.908;35.556;2023-02-11T00:15:16;100434.13;;;-6.97;68.37
73338;BME280;61575;49.908;35.556;2023-02-11T00:18:18;100430.69;;;-6.99;68.98
73338;BME280;61575;49.908;35.556;2023-02-11T00:21:23;100422.81;;;-6.97;69.29
73338;BME280;61575;49.908;35.556;2023-02-11T00:24:25;100424.66;;;-6.99;68.84
73338;BME280;61575;49.908;35.556;2023-02-11T00:27:27;100426.59;;;-7.07;68.90
73338;BME280;61575;49.908;35.556;2023-02-11T00:30:29;100428.72;;;-7.23;69.16
73338;BME280;61575;49.908;35.556;2023-02-11T00:33:30;100441.00;;;-7.28;69.11
73338;BME280;61575;49.908;35.556;2023-02-11T00:36:32;100443.50;;;-7.23;69.17
73338;BME280;61575;49.908;35.556;2023-02-11T00:39:35;100431.41;;;-7.26;69.18
73338;BME280;61575;49.908;35.556;2023-02-11T00:42:37;100427.94;;;-7.26;69.22
73338;BME280;61575;49.908;35.556;2023-02-11T00:45:39;100431.41;;;-7.26;69.28
73338;BME280;61575;49.908;35.556;2023-02-11T00:48:41;100423.50;;;-7.23;69.44
73338;BME280;61575;49.908;35.556;2023-02-11T00:51:43;100417.41;;;-7.23;69.16
73338;BME280;61575;49.908;35.556;2023-02-11T00:54:46;100420.31;;;-7.36;69.00
73338;BME280;61575;49.908;35.556;2023-02-11T00:57:48;100416.78;;;-7.33;69.08
73338;BME280;61575;49.908;35.556;2023-02-11T01:00:50;100416.81;;;-7.35;69.18
73338;BME280;61575;49.908;35.556;2023-02-11T01:03:52;100415.03;;;-7.33;69.30
73338;BME280;61575;49.908;35.556;2023-02-11T01:06:56;100407.56;;;-7.48;69.03
73338;BME280;61575;49.908;35.556;2023-02-11T01:09:59;100408.66;;;-7.58;69.32
73338;BME280;61575;49.908;35.556;2023-02-11T01:13:03;100400.88;;;-7.59;69.48
73338;BME280;61575;49.908;35.556;2023-02-11T01:16:08;100412.28;;;-7.65;69.63
73338;BME280;61575;49.908;35.556;2023-02-11T01:19:10;100408.78;;;-7.64;69.68
73338;BME280;61575;49.908;35.556;2023-02-11T01:22:12;100416.53;;;-7.61;69.90
73338;BME280;61575;49.908;35.556;2023-02-11T01:25:14;100412.97;;;-7.57;69.70
73338;BME280;61575;49.908;35.556;2023-02-11T01:28:18;100419.94;;;-7.57;69.84
73338;BME280;61575;49.908;35.556;2023-02-11T01:31:21;100419.97;;;-7.59;69.95
73338;BME280;61575;49.908;35.556;2023-02-11T01:34:23;100417.78;;;-7.77;70.41
73338;BME280;61575;49.908;35.556;2023-02-11T01:37:25;100423.03;;;-7.79;70.50
73338;BME280;61575;49.908;35.556;2023-02-11T01:40:27;100420.34;;;-7.76;70.39
73338;BME280;61575;49.908;35.556;2023-02-11T01:43:48;100422.41;;;-7.90;70.83
73338;BME280;61575;49.908;35.556;2023-02-11T01:46:50;100415.56;;;-7.96;71.23
73338;BME280;61575;49.908;35.556;2023-02-11T01:49:56;100419.03;;;-7.95;71.31
73338;BME280;61575;49.908;35.556;2023-02-11T01:52:58;100421.47;;;-7.87;71.10
73338;BME280;61575;49.908;35.556;2023-02-11T01:56:21;100417.09;;;-7.85;71.17
73338;BME280;61575;49.908;35.556;2023-02-11T02:03:19;100427.94;;;-7.65;71.22
73338;BME280;61575;49.908;35.556;2023-02-11T02:06:34;100425.16;;;-7.57;71.30
73338;BME280;61575;49.908;35.556;2023-02-11T02:09:43;100423.25;;;-7.49;71.43
73338;BME280;61575;49.908;35.556;2023-02-11T02:12:46;100427.44;;;-7.42;71.47
73338;BME280;61575;49.908;35.556;2023-02-11T02:16:06;100421.31;;;-7.41;71.42
73338;BME280;61575;49.908;35.556;2023-02-11T02:33:13;100421.38;;;-7.44;70.86
73338;BME280;61575;49.908;35.556;2023-02-11T02:36:37;100417.75;;;-7.37;70.72
73338;BME280;61575;49.908;35.556;2023-02-11T02:39:44;100411.56;;;-7.33;70.89
73338;BME280;61575;49.908;35.556;2023-02-11T02:42:48;100407.97;;;-7.29;70.65
73338;BME280;61575;49.908;35.556;2023-02-11T02:45:51;100406.09;;;-7.22;71.42
73338;BME280;61575;49.908;35.556;2023-02-11T02:48:54;100409.44;;;-7.17;71.31
73338;BME280;61575;49.908;35.556;2023-02-11T02:55:19;100418.75;;;-7.07;71.29
73338;BME280;61575;49.908;35.556;2023-02-11T02:58:29;100417.78;;;-7.03;71.36
73338;BME280;61575;49.908;35.556;2023-02-11T03:08:07;100398.13;;;-6.84;71.20
73338;BME280;61575;49.908;35.556;2023-02-11T03:11:10;100396.38;;;-6.83;71.61
73338;BME280;61575;49.908;35.556;2023-02-11T03:14:15;100396.31;;;-6.82;71.56
73338;BME280;61575;49.908;35.556;2023-02-11T03:17:19;100398.69;;;-6.73;71.07
73338;BME280;61575;49.908;35.556;2023-02-11T03:20:22;100389.88;;;-6.69;70.90
73338;BME280;61575;49.908;35.556;2023-02-11T03:23:27;100381.97;;;-6.66;71.36
73338;BME280;61575;49.908;35.556;2023-02-11T03:26:45;100393.28;;;-6.65;72.02
73338;BME280;61575;49.908;35.556;2023-02-11T03:33:07;100393.72;;;-6.49;71.49
73338;BME280;61575;49.908;35.556;2023-02-11T03:36:21;100397.03;;;-6.43;71.84
73338;BME280;61575;49.908;35.556;2023-02-11T03:39:31;100399.44;;;-6.35;71.44
73338;BME280;61575;49.908;35.556;2023-02-11T03:42:42;100393.09;;;-6.28;71.78
73338;BME280;61575;49.908;35.556;2023-02-11T03:45:48;100392.94;;;-6.22;71.50
73338;BME280;61575;49.908;35.556;2023-02-11T03:48:55;100388.50;;;-6.20;71.84
73338;BME280;61575;49.908;35.556;2023-02-11T03:52:00;100391.03;;;-6.17;71.71
73338;BME280;61575;49.908;35.556;2023-02-11T03:55:10;100390.94;;;-6.14;71.47
73338;BME280;61575;49.908;35.556;2023-02-11T03:58:13;100389.16;;;-6.12;70.99
73338;BME280;61575;49.908;35.556;2023-02-11T04:01:15;100380.50;;;-6.14;71.86
73338;BME280;61575;49.908;35.556;2023-02-11T04:04:17;100384.78;;;-6.11;71.74
73338;BME280;61575;49.908;35.556;2023-02-11T04:07:19;100383.84;;;-6.09;71.85
73338;BME280;61575;49.908;35.556;2023-02-11T04:10:21;100385.38;;;-6.02;71.52
73338;BME280;61575;49.908;35.556;2023-02-11T04:13:23;100388.78;;;-6.00;71.68
73338;BME280;61575;49.908;35.556;2023-02-11T04:16:25;100382.66;;;-5.99;71.69
73338;BME280;61575;49.908;35.556;2023-02-11T04:19:27;100390.59;;;-6.02;72.13
73338;BME280;61575;49.908;35.556;2023-02-11T04:22:30;100382.63;;;-5.97;72.00
73338;BME280;61575;49.908;35.556;2023-02-11T04:25:31;100390.59;;;-6.02;72.54
73338;BME280;61575;49.908;35.556;2023-02-11T04:28:33;100393.13;;;-5.99;72.29
73338;BME280;61575;49.908;35.556;2023-02-11T04:31:36;100392.22;;;-5.97;71.97
73338;BME280;61575;49.908;35.556;2023-02-11T04:34:38;100388.72;;;-5.96;72.40
73338;BME280;61575;49.908;35.556;2023-02-11T04:37:40;100381.72;;;-5.96;72.22
73338;BME280;61575;49.908;35.556;2023-02-11T04:40:42;100390.50;;;-5.99;71.68
73338;BME280;61575;49.908;35.556;2023-02-11T04:43:44;100389.69;;;-6.01;71.59
73338;BME280;61575;49.908;35.556;2023-02-11T04:46:46;100385.47;;;-6.05;71.90
73338;BME280;61575;49.908;35.556;2023-02-11T04:49:48;100390.78;;;-6.08;72.35
73338;BME280;61575;49.908;35.556;2023-02-11T04:52:50;100393.66;;;-6.17;72.24
73338;BME280;61575;49.908;35.556;2023-02-11T04:55:52;100382.34;;;-6.17;72.67
73338;BME280;61575;49.908;35.556;2023-02-11T04:58:54;100386.59;;;-6.13;72.61
73338;BME280;61575;49.908;35.556;2023-02-11T05:01:56;100384.69;;;-6.08;72.48
73338;BME280;61575;49.908;35.556;2023-02-11T05:04:58;100391.72;;;-6.10;72.77
73338;BME280;61575;49.908;35.556;2023-02-11T05:08:00;100388.97;;;-6.06;72.67
73338;BME280;61575;49.908;35.556;2023-02-11T05:11:02;100390.59;;;-6.02;72.23
73338;BME280;61575;49.908;35.556;2023-02-11T05:14:05;100394.19;;;-6.06;72.43
73338;BME280;61575;49.908;35.556;2023-02-11T05:17:07;100388.03;;;-6.03;72.89
73338;BME280;61575;49.908;35.556;2023-02-11T05:20:09;100393.13;;;-5.99;72.56
73338;BME280;61575;49.908;35.556;2023-02-11T05:23:11;100386.75;;;-5.90;72.58
73338;BME280;61575;49.908;35.556;2023-02-11T05:26:13;100383.03;;;-5.81;72.75
73338;BME280;61575;49.908;35.556;2023-02-11T05:29:15;100378.31;;;-5.70;72.08
73338;BME280;61575;49.908;35.556;2023-02-11T05:32:17;100378.03;;;-5.61;72.45
73338;BME280;61575;49.908;35.556;2023-02-11T05:35:19;100372.31;;;-5.46;72.34
73338;BME280;61575;49.908;35.556;2023-02-11T05:38:20;100369.31;;;-5.34;72.67
73338;BME280;61575;49.908;35.556;2023-02-11T05:41:23;100373.41;;;-5.25;72.37
73338;BME280;61575;49.908;35.556;2023-02-11T05:44:24;100371.38;;;-5.17;71.83
73338;BME280;61575;49.908;35.556;2023-02-11T05:47:26;100372.16;;;-5.13;72.35
73338;BME280;61575;49.908;35.556;2023-02-11T05:50:28;100374.59;;;-5.09;72.06
73338;BME280;61575;49.908;35.556;2023-02-11T05:53:30;100367.47;;;-5.04;72.24
73338;BME280;61575;49.908;35.556;2023-02-11T05:56:32;100363.84;;;-4.99;71.71
73338;BME280;61575;49.908;35.556;2023-02-11T05:59:34;100362.97;;;-5.00;72.06
73338;BME280;61575;49.908;35.556;2023-02-11T06:02:36;100358.34;;;-4.92;72.06
73338;BME280;61575;49.908;35.556;2023-02-11T06:05:38;100360.84;;;-4.89;72.30
73338;BME280;61575;49.908;35.556;2023-02-11T06:08:39;100352.88;;;-4.86;72.31
73338;BME280;61575;49.908;35.556;2023-02-11T06:11:42;100343.31;;;-4.87;72.18
73338;BME280;61575;49.908;35.556;2023-02-11T06:14:44;100357.16;;;-4.83;72.24
73338;BME280;61575;49.908;35.556;2023-02-11T06:17:45;100342.34;;;-4.84;72.12
73338;BME280;61575;49.908;35.556;2023-02-11T06:20:47;100340.31;;;-4.76;72.57
73338;BME280;61575;49.908;35.556;2023-02-11T06:23:49;100330.44;;;-4.68;72.49
73338;BME280;61575;49.908;35.556;2023-02-11T06:26:51;100333.75;;;-4.63;72.56
73338;BME280;61575;49.908;35.556;2023-02-11T06:29:53;100326.72;;;-4.62;72.24
73338;BME280;61575;49.908;35.556;2023-02-11T06:32:55;100331.81;;;-4.58;72.52
73338;BME280;61575;49.908;35.556;2023-02-11T06:35:56;100336.84;;;-4.52;72.96
73338;BME280;61575;49.908;35.556;2023-02-11T06:38:58;100333.09;;;-4.45;73.19
73338;BME280;61575;49.908;35.556;2023-02-11T06:42:00;100331.09;;;-4.38;72.48
73338;BME280;61575;49.908;35.556;2023-02-11T06:45:02;100338.78;;;-4.33;72.64
73338;BME280;61575;49.908;35.556;2023-02-11T06:48:06;100337.06;;;-4.34;72.20
73338;BME280;61575;49.908;35.556;2023-02-11T06:51:10;100331.59;;;-4.28;72.63
73338;BME280;61575;49.908;35.556;2023-02-11T06:54:12;100333.16;;;-4.23;72.77
73338;BME280;61575;49.908;35.556;2023-02-11T06:57:14;100325.00;;;-4.15;72.35
73338;BME280;61575;49.908;35.556;2023-02-11T07:00:16;100332.47;;;-4.05;72.46
73338;BME280;61575;49.908;35.556;2023-02-11T07:03:18;100335.69;;;-3.98;72.27
73338;BME280;61575;49.908;35.556;2023-02-11T07:06:22;100325.81;;;-3.91;72.29
73338;BME280;61575;49.908;35.556;2023-02-11T07:09:24;100329.13;;;-3.86;71.95
73338;BME280;61575;49.908;35.556;2023-02-11T07:12:26;100319.25;;;-3.80;72.37
73338;BME280;61575;49.908;35.556;2023-02-11T07:15:28;100319.75;;;-3.70;71.67
73338;BME280;61575;49.908;35.556;2023-02-11T07:18:29;100331.59;;;-3.60;72.16
73338;BME280;61575;49.908;35.556;2023-02-11T07:21:31;100327.69;;;-3.50;71.72
73338;BME280;61575;49.908;35.556;2023-02-11T07:24:33;100331.66;;;-3.40;72.05
73338;BME280;61575;49.908;35.556;2023-02-11T07:27:35;100338.28;;;-3.31;71.77
73338;BME280;61575;49.908;35.556;2023-02-11T07:30:37;100332.84;;;-3.26;71.56
73338;BME280;61575;49.908;35.556;2023-02-11T07:33:41;100340.41;;;-3.19;71.87
73338;BME280;61575;49.908;35.556;2023-02-11T07:36:43;100338.66;;;-3.18;71.53
73338;BME280;61575;49.908;35.556;2023-02-11T07:39:45;100344.63;;;-3.15;71.04
73338;BME280;61575;49.908;35.556;2023-02-11T07:42:47;100341.09;;;-3.14;70.98
73338;BME280;61575;49.908;35.556;2023-02-11T07:45:49;100338.25;;;-3.09;71.37
73338;BME280;61575;49.908;35.556;2023-02-11T07:48:51;100341.09;;;-3.14;71.13
73338;BME280;61575;49.908;35.556;2023-02-11T07:51:53;100337.66;;;-3.16;71.67
73338;BME280;61575;49.908;35.556;2023-02-11T07:54:56;100335.75;;;-3.12;71.54
73338;BME280;61575;49.908;35.556;2023-02-11T07:57:57;100333.13;;;-3.12;71.77
73338;BME280;61575;49.908;35.556;2023-02-11T08:01:01;100321.53;;;-3.07;71.20
73338;BME280;61575;49.908;35.556;2023-02-11T08:04:03;100309.16;;;-3.04;71.43
73338;BME280;61575;49.908;35.556;2023-02-11T08:07:05;100314.16;;;-2.98;71.22
73338;BME280;61575;49.908;35.556;2023-02-11T08:10:07;100318.13;;;-2.88;72.25
73338;BME280;61575;49.908;35.556;2023-02-11T08:13:09;100317.72;;;-2.79;71.79
73338;BME280;61575;49.908;35.556;2023-02-11T08:16:25;100310.28;;;-2.69;71.59
73338;BME280;61575;49.908;35.556;2023-02-11T08:19:27;100304.91;;;-2.66;71.89
73338;BME280;61575;49.908;35.556;2023-02-11T08:22:33;100303.69;;;-2.59;71.33
73338;BME280;61575;49.908;35.556;2023-02-11T08:25:35;100292.84;;;-2.52;71.22
73338;BME280;61575;49.908;35.556;2023-02-11T08:28:38;100285.66;;;-2.48;71.60
73338;BME280;61575;49.908;35.556;2023-02-11T08:31:43;100284.41;;;-2.39;71.19
73338;BME280;61575;49.908;35.556;2023-02-11T08:34:50;100284.06;;;-2.32;71.29
73338;BME280;61575;49.908;35.556;2023-02-11T08:37:52;100281.16;;;-2.26;71.41
73338;BME280;61575;49.908;35.556;2023-02-11T08:40:54;100292.59;;;-2.27;70.99
73338;BME280;61575;49.908;35.556;2023-02-11T08:43:55;100294.50;;;-2.12;71.52
73338;BME280;61575;49.908;35.556;2023-02-11T08:46:57;100285.47;;;-2.06;71.32
73338;BME280;61575;49.908;35.556;2023-02-11T08:49:59;100285.13;;;-1.98;70.86
73338;BME280;61575;49.908;35.556;2023-02-11T08:53:01;100275.78;;;-1.87;71.08
73338;BME280;61575;49.908;35.556;2023-02-11T08:56:04;100277.22;;;-1.80;70.79
73338;BME280;61575;49.908;35.556;2023-02-11T08:59:07;100269.94;;;-1.74;70.82
73338;BME280;61575;49.908;35.556;2023-02-11T09:02:13;100265.16;;;-1.66;70.45
73338;BME280;61575;49.908;35.556;2023-02-11T09:05:15;100260.38;;;-1.58;70.58
73338;BME280;61575;49.908;35.556;2023-02-11T09:08:18;100249.00;;;-1.41;70.44
73338;BME280;61575;49.908;35.556;2023-02-11T09:11:24;100243.66;;;-1.40;69.97
73338;BME280;61575;49.908;35.556;2023-02-11T09:14:27;100244.59;;;-1.24;70.03
73338;BME280;61575;49.908;35.556;2023-02-11T09:17:28;100238.81;;;-0.97;70.37
73338;BME280;61575;49.908;35.556;2023-02-11T09:20:30;100226.69;;;-0.84;69.49
73338;BME280;61575;49.908;35.556;2023-02-11T09:23:33;100230.47;;;-0.72;69.08
73338;BME280;61575;49.908;35.556;2023-02-11T09:26:35;100221.22;;;-0.64;69.11
73338;BME280;61575;49.908;35.556;2023-02-11T09:29:37;100216.22;;;-0.53;68.73
73338;BME280;61575;49.908;35.556;2023-02-11T09:32:39;100216.22;;;-0.37;68.84
73338;BME280;61575;49.908;35.556;2023-02-11T09:35:41;100206.19;;;-0.30;68.59
73338;BME280;61575;49.908;35.556;2023-02-11T09:38:43;100212.16;;;-0.27;68.36
73338;BME280;61575;49.908;35.556;2023-02-11T09:45:10;100198.44;;;-0.18;67.73
73338;BME280;61575;49.908;35.556;2023-02-11T09:48:16;100181.69;;;-0.17;67.85
73338;BME280;61575;49.908;35.556;2023-02-11T09:54:55;100180.31;;;-0.08;67.47
73338;BME280;61575;49.908;35.556;2023-02-11T09:57:57;100170.06;;;0.02;67.87
73338;BME280;61575;49.908;35.556;2023-02-11T10:01:38;100158.06;;;0.12;67.14
73338;BME280;61575;49.908;35.556;2023-02-11T10:08:53;100162.94;;;0.34;67.09
73338;BME280;61575;49.908;35.556;2023-02-11T10:12:17;100164.56;;;0.36;66.32
73338;BME280;61575;49.908;35.556;2023-02-11T10:16:12;100159.00;;;0.41;66.33
73338;BME280;61575;49.908;35.556;2023-02-11T10:25:45;100144.25;;;0.67;66.63
73338;BME280;61575;49.908;35.556;2023-02-11T10:28:51;100137.16;;;0.67;66.33
73338;BME280;61575;49.908;35.556;2023-02-11T10:31:56;100137.06;;;0.69;66.27
73338;BME280;61575;49.908;35.556;2023-02-11T10:35:12;100140.28;;;0.74;66.47
73338;BME280;61575;49.908;35.556;2023-02-11T10:38:15;100134.81;;;0.77;66.09
73338;BME280;61575;49.908;35.556;2023-02-11T10:41:23;100133.50;;;0.70;64.99
73338;BME280;61575;49.908;35.556;2023-02-11T10:44:36;100128.00;;;0.73;65.97
73338;BME280;61575;49.908;35.556;2023-02-11T10:47:39;100124.44;;;0.74;66.11
73338;BME280;61575;49.908;35.556;2023-02-11T10:50:42;100131.81;;;0.83;66.57
73338;BME280;61575;49.908;35.556;2023-02-11T10:53:45;100124.34;;;0.90;66.23
73338;BME280;61575;49.908;35.556;2023-02-11T10:56:49;100124.63;;;0.85;66.07
73338;BME280;61575;49.908;35.556;2023-02-11T10:59:59;100115.19;;;0.95;66.22
73338;BME280;61575;49.908;35.556;2023-02-11T11:03:19;100113.09;;;1.00;65.74
73338;BME280;61575;49.908;35.556;2023-02-11T11:06:31;100108.19;;;0.94;65.78
73338;BME280;61575;49.908;35.556;2023-02-11T11:09:46;100087.91;;;0.95;65.65
73338;BME280;61575;49.908;35.556;2023-02-11T11:12:49;100083.44;;;0.95;65.80
73338;BME280;61575;49.908;35.556;2023-02-11T11:19:21;100077.22;;;1.10;65.58
73338;BME280;61575;49.908;35.556;2023-02-11T11:22:23;100069.09;;;1.13;65.33
73338;BME280;61575;49.908;35.556;2023-02-11T11:25:29;100067.00;;;1.04;65.18
73338;BME280;61575;49.908;35.556;2023-02-11T11:29:01;100056.06;;;1.10;65.04
73338;BME280;61575;49.908;35.556;2023-02-11T11:32:09;100055.56;;;1.18;65.28
73338;BME280;61575;49.908;35.556;2023-02-11T11:35:25;100046.19;;;1.27;65.10
73338;BME280;61575;49.908;35.556;2023-02-11T11:38:29;100040.91;;;1.27;64.94
73338;BME280;61575;49.908;35.556;2023-02-11T11:41:33;100036.75;;;1.23;64.87
73338;BME280;61575;49.908;35.556;2023-02-11T11:44:36;100040.81;;;1.28;65.38
73338;BME280;61575;49.908;35.556;2023-02-11T11:48:02;100039.00;;;1.29;65.13
73338;BME280;61575;49.908;35.556;2023-02-11T11:51:11;100029.91;;;1.33;65.11
73338;BME280;61575;49.908;35.556;2023-02-11T11:54:15;100024.63;;;1.33;65.18
73338;BME280;61575;49.908;35.556;2023-02-11T11:57:22;100026.97;;;1.37;65.36
73338;BME280;61575;49.908;35.556;2023-02-11T12:00:39;100027.44;;;1.44;65.48
73338;BME280;61575;49.908;35.556;2023-02-11T12:27:50;99986.69;;;1.46;65.69
73338;BME280;61575;49.908;35.556;2023-02-11T12:34:16;99986.94;;;1.29;65.70
73338;BME280;61575;49.908;35.556;2023-02-11T12:43:46;99963.28;;;1.13;66.25
73338;BME280;61575;49.908;35.556;2023-02-11T12:54:23;99941.81;;;1.18;66.16
73338;BME280;61575;49.908;35.556;2023-02-11T12:57:29;99943.63;;;1.17;66.51
73338;BME280;61575;49.908;35.556;2023-02-11T13:00:44;99935.78;;;1.16;66.58
73338;BME280;61575;49.908;35.556;2023-02-11T13:03:59;99932.47;;;1.12;66.49
73338;BME280;61575;49.908;35.556;2023-02-11T13:07:12;99929.09;;;1.10;66.44
73338;BME280;61575;49.908;35.556;2023-02-11T13:13:36;99918.34;;;0.99;66.57
73338;BME280;61575;49.908;35.556;2023-02-11T13:16:45;99913.38;;;0.95;66.64
73338;BME280;61575;49.908;35.556;2023-02-11T13:19:56;99905.34;;;0.96;66.71
73338;BME280;61575;49.908;35.556;2023-02-11T13:26:15;99896.31;;;0.86;67.12
73338;BME280;61575;49.908;35.556;2023-02-11T13:29:32;99892.91;;;0.84;67.37
73338;BME280;61575;49.908;35.556;2023-02-11T13:39:00;99873.91;;;0.65;68.19
73338;BME280;61575;49.908;35.556;2023-02-11T13:42:03;99870.81;;;0.58;68.53
73338;BME280;61575;49.908;35.556;2023-02-11T13:45:17;99871.75;;;0.57;68.50
73338;BME280;61575;49.908;35.556;2023-02-11T13:48:35;99871.09;;;0.53;68.74
73338;BME280;61575;49.908;35.556;2023-02-11T13:51:39;99868.94;;;0.46;69.17
73338;BME280;61575;49.908;35.556;2023-02-11T13:54:46;99869.97;;;0.43;68.87
73338;BME280;61575;49.908;35.556;2023-02-11T14:08:28;99843.72;;;0.13;69.87
73338;BME280;61575;49.908;35.556;2023-02-11T14:11:53;99843.16;;;0.08;70.06
73338;BME280;61575;49.908;35.556;2023-02-11T14:15:20;99848.91;;;0.01;70.09
73338;BME280;61575;49.908;35.556;2023-02-11T14:21:46;99856.34;;;-0.06;70.13
73338;BME280;61575;49.908;35.556;2023-02-11T14:28:15;99848.91;;;-0.14;70.55
73338;BME280;61575;49.908;35.556;2023-02-11T14:31:28;99847.41;;;-0.18;70.85
73338;BME280;61575;49.908;35.556;2023-02-11T14:41:22;99839.66;;;-0.35;71.16
73338;BME280;61575;49.908;35.556;2023-02-11T14:44:27;99843.69;;;-0.43;71.33
73338;BME280;61575;49.908;35.556;2023-02-11T14:47:42;99834.56;;;-0.52;71.61
73338;BME280;61575;49.908;35.556;2023-02-11T14:50:49;99843.28;;;-0.66;72.29
73338;BME280;61575;49.908;35.556;2023-02-11T14:54:03;99824.47;;;-0.60;72.10
73338;BME280;61575;49.908;35.556;2023-02-11T14:57:19;99824.38;;;-0.58;72.09
73338;BME280;61575;49.908;35.556;2023-02-11T15:00:21;99824.84;;;-0.66;72.28
73338;BME280;61575;49.908;35.556;2023-02-11T15:03:35;99828.31;;;-0.65;72.49
73338;BME280;61575;49.908;35.556;2023-02-11T15:06:39;99826.97;;;-0.72;72.77
73338;BME280;61575;49.908;35.556;2023-02-11T15:09:47;99819.34;;;-0.77;72.83
73338;BME280;61575;49.908;35.556;2023-02-11T15:12:50;99816.97;;;-0.82;73.02
73338;BME280;61575;49.908;35.556;2023-02-11T15:16:20;99812.56;;;-0.81;73.31
73338;BME280;61575;49.908;35.556;2023-02-11T15:19:35;99818.09;;;-0.86;73.36
73338;BME280;61575;49.908;35.556;2023-02-11T15:22:39;99807.81;;;-0.90;73.57
73338;BME280;61575;49.908;35.556;2023-02-11T15:25:44;99792.09;;;-0.92;73.74
73338;BME280;61575;49.908;35.556;2023-02-11T15:28:56;99792.28;;;-0.95;73.62
73338;BME280;61575;49.908;35.556;2023-02-11T15:32:25;99793.03;;;-0.93;74.04
73338;BME280;61575;49.908;35.556;2023-02-11T15:35:38;99791.25;;;-0.92;73.86
73338;BME280;61575;49.908;35.556;2023-02-11T15:38:41;99795.84;;;-0.96;74.18
73338;BME280;61575;49.908;35.556;2023-02-11T15:41:43;99777.69;;;-1.00;74.39
73338;BME280;61575;49.908;35.556;2023-02-11T15:44:46;99785.41;;;-0.97;74.63
73338;BME280;61575;49.908;35.556;2023-02-11T15:54:22;99779.66;;;-1.04;75.11
73338;BME280;61575;49.908;35.556;2023-02-11T15:57:27;99777.09;;;-1.05;75.28
73338;BME280;61575;49.908;35.556;2023-02-11T16:00:45;99779.28;;;-1.12;75.62
73338;BME280;61575;49.908;35.556;2023-02-11T16:03:49;99768.53;;;-1.09;75.42
73338;BME280;61575;49.908;35.556;2023-02-11T16:06:52;99760.53;;;-1.07;75.67
73338;BME280;61575;49.908;35.556;2023-02-11T16:09:57;99744.94;;;-1.11;75.44
73338;BME280;61575;49.908;35.556;2023-02-11T16:16:17;99741.41;;;-1.25;76.24
73338;BME280;61575;49.908;35.556;2023-02-11T16:19:20;99737.84;;;-1.24;76.66
73338;BME280;61575;49.908;35.556;2023-02-11T16:22:28;99729.94;;;-1.24;76.31
73338;BME280;61575;49.908;35.556;2023-02-11T16:25:36;99722.88;;;-1.24;76.07
73338;BME280;61575;49.908;35.556;2023-02-11T16:28:38;99725.22;;;-1.33;76.68
73338;BME280;61575;49.908;35.556;2023-02-11T16:31:46;99720.69;;;-1.31;76.62
73338;BME280;61575;49.908;35.556;2023-02-11T16:34:49;99716.47;;;-1.34;76.76
73338;BME280;61575;49.908;35.556;2023-02-11T16:37:51;99721.72;;;-1.34;76.76
73338;BME280;61575;49.908;35.556;2023-02-11T16:40:54;99730.56;;;-1.35;76.68
73338;BME280;61575;49.908;35.556;2023-02-11T16:43:56;99711.47;;;-1.38;76.78
73338;BME280;61575;49.908;35.556;2023-02-11T16:47:00;99711.38;;;-1.37;76.87
73338;BME280;61575;49.908;35.556;2023-02-11T16:50:07;99700.81;;;-1.37;76.57
73338;BME280;61575;49.908;35.556;2023-02-11T16:53:10;99694.91;;;-1.40;77.02
73338;BME280;61575;49.908;35.556;2023-02-11T16:56:16;99694.50;;;-1.49;77.33
73338;BME280;61575;49.908;35.556;2023-02-11T16:59:19;99680.47;;;-1.49;77.35
73338;BME280;61575;49.908;35.556;2023-02-11T17:02:30;99689.41;;;-1.52;77.14
73338;BME280;61575;49.908;35.556;2023-02-11T17:05:34;99686.00;;;-1.54;77.76
73338;BME280;61575;49.908;35.556;2023-02-11T17:08:56;99690.44;;;-1.54;77.70
73338;BME280;61575;49.908;35.556;2023-02-11T17:11:58;99691.38;;;-1.55;77.79
73338;BME280;61575;49.908;35.556;2023-02-11T17:15:00;99684.50;;;-1.58;77.55
73338;BME280;61575;49.908;35.556;2023-02-11T17:18:02;99680.84;;;-1.55;77.77
73338;BME280;61575;49.908;35.556;2023-02-11T17:21:05;99675.75;;;-1.58;77.73
73338;BME280;61575;49.908;35.556;2023-02-11T17:24:07;99662.59;;;-1.58;77.91
73338;BME280;61575;49.908;35.556;2023-02-11T17:27:10;99655.88;;;-1.64;77.80
73338;BME280;61575;49.908;35.556;2023-02-11T17:30:13;99649.88;;;-1.66;78.20
73338;BME280;61575;49.908;35.556;2023-02-11T17:33:15;99640.84;;;-1.62;77.95
73338;BME280;61575;49.908;35.556;2023-02-11T17:36:17;99639.16;;;-1.63;78.09
73338;BME280;61575;49.908;35.556;2023-02-11T17:39:19;99635.69;;;-1.63;78.15
73338;BME280;61575;49.908;35.556;2023-02-11T17:42:21;99626.09;;;-1.64;77.80
73338;BME280;61575;49.908;35.556;2023-02-11T17:45:23;99630.69;;;-1.68;77.96
73338;BME280;61575;49.908;35.556;2023-02-11T17:48:25;99622.50;;;-1.63;78.11
73338;BME280;61575;49.908;35.556;2023-02-11T17:51:35;99612.91;;;-1.64;78.00
73338;BME280;61575;49.908;35.556;2023-02-11T17:54:37;99609.34;;;-1.63;78.14
73338;BME280;61575;49.908;35.556;2023-02-11T17:57:40;99605.09;;;-1.66;78.16
73338;BME280;61575;49.908;35.556;2023-02-11T18:00:42;99605.78;;;-1.62;78.04
73338;BME280;61575;49.908;35.556;2023-02-11T18:03:44;99596.44;;;-1.68;78.44
73338;BME280;61575;49.908;35.556;2023-02-11T18:06:46;99590.34;;;-1.68;78.45
73338;BME280;61575;49.908;35.556;2023-02-11T18:09:48;99591.75;;;-1.63;78.33
73338;BME280;61575;49.908;35.556;2023-02-11T18:12:50;99589.31;;;-1.66;78.68
73338;BME280;61575;49.908;35.556;2023-02-11T18:15:52;99574.00;;;-1.59;78.56
73338;BME280;61575;49.908;35.556;2023-02-11T18:18:55;99573.06;;;-1.58;78.58
73338;BME280;61575;49.908;35.556;2023-02-11T18:21:58;99564.31;;;-1.59;78.53